createdAt,value
2023-02-01T00:00:14.627Z,99163.42
2023-02-01T00:03:06.029Z,99166.86
2023-02-01T00:05:35.036Z,99158.30
2023-02-01T00:08:04.951Z,99158.32
2023-02-01T00:10:34.269Z,99159.16
2023-02-01T00:13:04.131Z,99160.91
2023-02-01T00:15:34.438Z,99162.61
2023-02-01T00:18:03.941Z,99166.05
2023-02-01T00:20:33.666Z,99164.34
2023-02-01T00:23:02.875Z,99175.49
2023-02-01T00:25:33.765Z,99173.80
2023-02-01T00:28:03.211Z,99177.23
2023-02-01T00:30:32.182Z,99177.23
2023-02-01T00:33:01.678Z,99179.81
2023-02-01T00:35:30.825Z,99182.38
2023-02-01T00:38:00.113Z,99176.38
2023-02-01T00:40:29.927Z,99178.95
2023-02-01T00:42:59.143Z,99182.39
2023-02-01T00:45:30.014Z,99184.11
2023-02-01T00:47:59.160Z,99184.10
2023-02-01T00:50:30.686Z,99187.55
2023-02-01T00:53:00.255Z,99182.41
2023-02-01T00:55:30.245Z,99189.24
2023-02-01T00:57:59.249Z,99187.55
2023-02-01T01:00:30.103Z,99187.55
2023-02-01T01:02:59.844Z,99190.95
2023-02-01T01:05:29.814Z,99192.69
2023-02-01T01:07:58.627Z,99186.67
2023-02-01T01:10:30.088Z,99188.38
2023-02-01T01:12:59.118Z,99188.36
2023-02-01T01:15:30.528Z,99185.77
2023-02-01T01:17:59.396Z,99192.64
2023-02-01T01:20:30.407Z,99186.63
2023-02-01T01:22:59.659Z,99202.04
2023-02-01T01:25:30.007Z,99214.91
2023-02-01T01:27:59.332Z,99209.77
2023-02-01T01:30:32.862Z,99212.33
2023-02-01T01:33:02.028Z,99215.77
2023-02-01T01:35:32.851Z,99217.50
2023-02-01T01:38:02.717Z,99218.34
2023-02-01T01:40:32.136Z,99214.92
2023-02-01T01:43:01.315Z,99209.77
2023-02-01T01:45:32.949Z,99219.22
2023-02-01T01:48:06.753Z,99222.65
2023-02-01T01:50:40.596Z,99223.50
2023-02-01T01:53:14.297Z,99223.48
2023-02-01T01:55:46.728Z,99239.77
2023-02-01T01:58:24.627Z,99238.89
2023-02-01T02:00:54.872Z,99250.06
2023-02-01T02:03:28.788Z,99246.61
2023-02-01T02:06:00.519Z,99252.63
2023-02-01T02:08:32.995Z,99251.78
2023-02-01T02:11:02.626Z,99245.77
2023-02-01T02:13:37.447Z,99251.78
2023-02-01T02:16:28.121Z,99245.78
2023-02-01T02:19:12.613Z,99241.48
2023-02-01T02:22:06.244Z,99242.33
2023-02-01T02:24:53.450Z,99243.21
2023-02-01T02:27:30.065Z,99260.37
2023-02-01T02:30:36.461Z,99252.65
2023-02-01T02:33:41.756Z,99257.79
2023-02-01T02:36:16.819Z,99251.80
2023-02-01T02:38:54.820Z,99250.10
2023-02-01T02:41:51.511Z,99260.38
2023-02-01T02:44:45.560Z,99257.81
2023-02-01T02:47:29.860Z,99252.66
2023-02-01T02:50:29.150Z,99258.69
2023-02-01T02:53:21.609Z,99256.95
2023-02-01T02:55:53.209Z,99262.95
2023-02-01T02:58:42.079Z,99256.09
2023-02-01T03:01:29.806Z,99262.97
2023-02-01T03:04:09.583Z,99260.39
2023-02-01T03:06:40.532Z,99265.51
2023-02-01T03:09:19.048Z,99262.08
2023-02-01T03:12:10.553Z,99269.80
2023-02-01T03:14:46.877Z,99260.38
2023-02-01T03:17:22.143Z,99266.38
2023-02-01T03:19:53.496Z,99267.23
2023-02-01T03:22:28.304Z,99276.65
2023-02-01T03:25:03.021Z,99278.34
2023-02-01T03:27:33.796Z,99278.34
2023-02-01T03:30:07.127Z,99278.35
2023-02-01T03:32:52.064Z,99274.06
2023-02-01T03:35:27.449Z,99273.21
2023-02-01T03:38:06.206Z,99274.06
2023-02-01T03:40:42.679Z,99279.23
2023-02-01T03:43:15.689Z,99279.23
2023-02-01T03:45:49.849Z,99278.34
2023-02-01T03:48:23.220Z,99278.38
2023-02-01T03:50:57.333Z,99274.95
2023-02-01T03:53:30.489Z,99274.95
2023-02-01T03:55:59.801Z,99271.52
2023-02-01T03:58:30.317Z,99274.12
2023-02-01T04:01:01.438Z,99278.41
2023-02-01T04:03:32.704Z,99276.71
2023-02-01T04:06:01.648Z,99289.58
2023-02-01T04:08:31.337Z,99288.73
2023-02-01T04:11:03.177Z,99292.17
2023-02-01T04:13:31.922Z,99282.72
2023-02-01T04:16:01.017Z,99285.30
2023-02-01T04:18:30.757Z,99285.32
2023-02-01T04:20:59.742Z,99283.59
2023-02-01T04:23:32.339Z,99287.05
2023-02-01T04:26:03.057Z,99291.31
2023-02-01T04:28:32.401Z,99296.45
2023-02-01T04:31:01.459Z,99298.18
2023-02-01T04:33:30.974Z,99285.31
2023-02-01T04:36:00.401Z,99302.48
2023-02-01T04:38:29.956Z,99297.34
2023-02-01T04:40:59.535Z,99314.47
2023-02-01T04:43:31.045Z,99311.05
2023-02-01T04:46:01.042Z,99308.48
2023-02-01T04:48:32.905Z,99305.91
2023-02-01T04:51:01.934Z,99320.50
2023-02-01T04:53:31.122Z,99307.63
2023-02-01T04:56:00.022Z,99311.05
2023-02-01T04:58:30.020Z,99310.20
2023-02-01T05:01:00.368Z,99308.49
2023-02-01T05:03:29.732Z,99318.81
2023-02-01T05:05:58.736Z,99317.09
2023-02-01T05:08:29.247Z,99320.52
2023-02-01T05:10:59.272Z,99323.08
2023-02-01T05:13:48.089Z,99317.93
2023-02-01T05:16:20.232Z,99325.66
2023-02-01T05:18:49.560Z,99318.81
2023-02-01T05:21:19.729Z,99320.51
2023-02-01T05:24:06.907Z,99322.23
2023-02-01T05:26:37.007Z,99314.51
2023-02-01T05:29:07.523Z,99317.08
2023-02-01T05:31:37.637Z,99307.64
2023-02-01T05:34:07.367Z,99309.36
2023-02-01T05:36:36.410Z,99309.38
2023-02-01T05:39:05.920Z,99301.65
2023-02-01T05:41:35.016Z,99301.63
2023-02-01T05:44:04.657Z,99299.91
2023-02-01T05:46:34.999Z,99303.33
2023-02-01T05:49:04.278Z,99307.61
2023-02-01T05:51:34.060Z,99316.19
2023-02-01T05:54:05.330Z,99313.58
2023-02-01T05:56:34.739Z,99310.16
2023-02-01T05:59:03.807Z,99304.14
2023-02-01T06:01:36.480Z,99310.16
2023-02-01T06:04:06.183Z,99311.03
2023-02-01T06:06:37.239Z,99317.03
2023-02-01T06:09:06.794Z,99304.16
2023-02-01T06:11:36.153Z,99302.44
2023-02-01T06:14:08.512Z,99301.59
2023-02-01T06:16:37.652Z,99309.31
2023-02-01T06:19:07.576Z,99304.14
2023-02-01T06:21:38.590Z,99298.15
2023-02-01T06:24:09.858Z,99303.30
2023-02-01T06:26:40.627Z,99302.42
2023-02-01T06:29:12.361Z,99305.02
2023-02-01T06:31:43.538Z,99298.14
2023-02-01T06:34:12.810Z,99303.31
2023-02-01T06:36:42.103Z,99298.17
2023-02-01T06:39:16.311Z,99301.58
2023-02-01T06:41:48.096Z,99298.19
2023-02-01T06:44:19.630Z,99298.17
2023-02-01T06:46:48.886Z,99298.20
2023-02-01T06:49:19.044Z,99292.22
2023-02-01T06:51:48.676Z,99287.94
2023-02-01T06:54:18.164Z,99281.94
2023-02-01T06:56:48.026Z,99276.78
2023-02-01T06:59:17.533Z,99292.25
2023-02-01T07:01:49.278Z,99290.52
2023-02-01T07:04:19.029Z,99287.95
2023-02-01T07:06:48.115Z,99290.52
2023-02-01T07:09:17.417Z,99281.09
2023-02-01T07:11:46.706Z,99294.84
2023-02-01T07:14:16.537Z,99292.26
2023-02-01T07:16:45.974Z,99298.28
2023-02-01T07:19:15.567Z,99292.28
2023-02-01T07:21:44.848Z,99288.85
2023-02-01T07:24:15.256Z,99297.41
2023-02-01T07:26:45.293Z,99300.02
2023-02-01T07:29:15.138Z,99291.43
2023-02-01T07:31:46.018Z,99299.17
2023-02-01T07:34:15.347Z,99300.87
2023-02-01T07:36:44.525Z,99297.47
2023-02-01T07:39:13.991Z,99297.48
2023-02-01T07:41:43.566Z,99304.34
2023-02-01T07:44:15.695Z,99307.80
2023-02-01T07:46:45.257Z,99299.20
2023-02-01T07:49:14.508Z,99305.22
2023-02-01T07:51:44.771Z,99306.94
2023-02-01T07:54:14.066Z,99291.48
2023-02-01T07:56:43.574Z,99300.09
2023-02-01T07:59:12.702Z,99290.66
2023-02-01T08:01:42.046Z,99290.66
2023-02-01T08:04:13.645Z,99284.63
2023-02-01T08:06:43.030Z,99291.52
2023-02-01T08:09:12.933Z,99293.23
2023-02-01T08:11:41.904Z,99288.08
2023-02-01T08:14:10.899Z,99292.37
2023-02-01T08:16:40.200Z,99286.34
2023-02-01T08:19:09.229Z,99289.78
2023-02-01T08:21:38.259Z,99285.50
2023-02-01T08:24:09.993Z,99283.80
2023-02-01T08:26:39.128Z,99276.91
2023-02-01T08:29:11.043Z,99279.48
2023-02-01T08:31:42.220Z,99282.94
2023-02-01T08:34:12.891Z,99281.22
2023-02-01T08:36:41.927Z,99287.23
2023-02-01T08:39:12.254Z,99296.67
2023-02-01T08:41:42.845Z,99288.09
2023-02-01T08:44:12.176Z,99285.53
2023-02-01T08:46:41.375Z,99281.22
2023-02-01T08:49:10.333Z,99283.80
2023-02-01T08:51:39.366Z,99288.94
2023-02-01T08:54:08.435Z,99294.97
2023-02-01T08:56:42.038Z,99288.94
2023-02-01T08:59:11.792Z,99294.09
2023-02-01T09:01:41.191Z,99313.02
2023-02-01T09:04:10.283Z,99308.72
2023-02-01T09:06:42.440Z,99298.41
2023-02-01T09:09:11.698Z,99294.95
2023-02-01T09:11:40.994Z,99295.81
2023-02-01T09:14:09.979Z,99290.67
2023-02-01T09:16:39.347Z,99294.98
2023-02-01T09:19:24.814Z,99305.27
2023-02-01T09:21:56.016Z,99298.40
2023-02-01T09:24:25.150Z,99299.25
2023-02-01T09:26:54.666Z,99290.66
2023-02-01T09:29:23.652Z,99288.06
2023-02-01T09:32:02.825Z,99296.65
2023-02-01T09:34:35.640Z,99294.06
2023-02-01T09:37:04.743Z,99289.75
2023-02-01T09:39:34.948Z,99284.59
2023-02-01T09:42:17.692Z,99292.33
2023-02-01T09:45:14.834Z,99280.30
2023-02-01T09:47:51.695Z,99275.13
2023-02-01T09:50:29.455Z,99276.86
2023-02-01T09:53:03.916Z,99265.65
2023-02-01T09:55:40.906Z,99276.81
2023-02-01T09:58:17.595Z,99280.92
2023-02-01T10:00:54.550Z,99278.10
2023-02-01T10:03:28.523Z,99270.19
2023-02-01T10:06:25.782Z,99276.16
2023-02-01T10:09:15.364Z,99268.46
2023-02-01T10:11:57.493Z,99271.97
2023-02-01T10:14:45.259Z,99282.34
2023-02-01T10:17:29.393Z,99280.72
2023-02-01T10:20:11.183Z,99272.19
2023-02-01T10:23:19.458Z,99268.80
2023-02-01T10:25:43.788Z,99274.81
2023-02-01T10:28:17.193Z,99276.53
2023-02-01T10:30:48.030Z,99269.65
2023-02-01T10:33:19.911Z,99287.78
2023-02-01T10:35:54.909Z,99283.48
2023-02-01T10:38:28.758Z,99291.30
2023-02-01T10:41:02.850Z,99273.23
2023-02-01T10:43:34.391Z,99280.11
2023-02-01T10:46:04.068Z,99281.02
2023-02-01T10:48:34.640Z,99273.28
2023-02-01T10:51:13.377Z,99284.50
2023-02-01T10:53:47.023Z,99285.37
2023-02-01T10:56:22.191Z,99280.22
2023-02-01T10:58:52.000Z,99279.38
2023-02-01T11:01:25.478Z,99273.36
2023-02-01T11:03:58.610Z,99272.48
2023-02-01T11:06:33.595Z,99265.58
2023-02-01T11:09:17.282Z,99265.55
2023-02-01T11:11:57.729Z,99249.17
2023-02-01T11:14:39.610Z,99267.07
2023-02-01T11:17:34.228Z,99259.25
2023-02-01T11:20:13.873Z,99261.77
2023-02-01T11:22:49.237Z,99255.76
2023-02-01T11:25:19.440Z,99262.66
2023-02-01T11:27:55.273Z,99258.36
2023-02-01T11:30:34.123Z,99256.58
2023-02-01T11:33:10.262Z,99262.59
2023-02-01T11:35:41.809Z,99247.03
2023-02-01T11:38:28.199Z,99258.17
2023-02-01T11:41:12.393Z,99255.42
2023-02-01T11:43:57.062Z,99244.94
2023-02-01T11:46:33.767Z,99240.34
2023-02-01T11:49:21.789Z,99238.39
2023-02-01T11:52:06.429Z,99247.77
2023-02-01T11:54:41.838Z,99242.38
2023-02-01T11:57:29.096Z,99220.73
2023-02-01T12:00:10.003Z,99239.04
2023-02-01T12:03:06.324Z,99231.44
2023-02-01T12:05:47.372Z,99240.22
2023-02-01T12:08:42.045Z,99233.50
2023-02-01T12:11:27.976Z,99226.71
2023-02-01T12:14:07.797Z,99230.22
2023-02-01T12:16:47.100Z,99225.95
2023-02-01T12:19:37.971Z,99234.68
2023-02-01T12:22:25.176Z,99230.48
2023-02-01T12:25:20.887Z,99223.66
2023-02-01T12:28:15.911Z,99224.61
2023-02-01T12:31:13.838Z,99219.49
2023-02-01T12:33:56.870Z,99228.14
2023-02-01T12:36:41.583Z,99222.09
2023-02-01T12:39:18.293Z,99229.89
2023-02-01T12:41:55.011Z,99229.06
2023-02-01T12:44:39.457Z,99228.23
2023-02-01T12:47:13.486Z,99228.30
2023-02-01T12:49:53.492Z,99228.32
2023-02-01T12:52:35.534Z,99230.06
2023-02-01T12:55:17.247Z,99230.89
2023-02-01T12:57:51.301Z,99236.92
2023-02-01T13:00:33.192Z,99237.72
2023-02-01T13:03:12.633Z,99228.12
2023-02-01T13:05:50.294Z,99224.69
2023-02-01T13:08:24.193Z,99225.50
2023-02-01T13:10:59.654Z,99228.09
2023-02-01T13:13:34.954Z,99224.65
2023-02-01T13:16:19.348Z,99231.53
2023-02-01T13:18:53.488Z,99235.84
2023-02-01T13:21:31.716Z,99240.14
2023-02-01T13:24:01.114Z,99246.19
2023-02-01T13:26:30.890Z,99252.22
2023-02-01T13:29:03.861Z,99254.87
2023-02-01T13:31:56.722Z,99254.91
2023-02-01T13:34:50.892Z,99254.13
2023-02-01T13:37:37.365Z,99255.88
2023-02-01T13:40:28.972Z,99251.57
2023-02-01T13:43:01.143Z,99256.78
2023-02-01T13:45:34.180Z,99259.39
2023-02-01T13:48:08.345Z,99259.42
2023-02-01T13:50:41.367Z,99261.16
2023-02-01T13:53:22.818Z,99262.90
2023-02-01T13:55:59.029Z,99256.92
2023-02-01T13:58:37.139Z,99262.09
2023-02-01T14:01:36.210Z,99258.67
2023-02-01T14:04:08.943Z,99251.79
2023-02-01T14:06:47.443Z,99247.48
2023-02-01T14:09:37.693Z,99245.80
2023-02-01T14:12:46.239Z,99241.48
2023-02-01T14:15:28.778Z,99240.64
2023-02-01T14:17:59.904Z,99247.52
2023-02-01T14:20:51.841Z,99246.65
2023-02-01T14:23:35.938Z,99240.66
2023-02-01T14:26:13.532Z,99238.09
2023-02-01T14:28:54.722Z,99242.39
2023-02-01T14:31:48.820Z,99247.59
2023-02-01T14:34:23.030Z,99249.31
2023-02-01T14:36:58.343Z,99251.91
2023-02-01T14:39:36.376Z,99244.18
2023-02-01T14:42:20.430Z,99249.34
2023-02-01T14:44:59.463Z,99248.48
2023-02-01T14:47:35.982Z,99245.02
2023-02-01T14:50:29.087Z,99254.47
2023-02-01T14:53:15.263Z,99250.19
2023-02-01T14:55:49.254Z,99247.61
2023-02-01T14:58:33.219Z,99259.63
2023-02-01T15:01:05.136Z,99249.33
2023-02-01T15:03:46.872Z,99252.77
2023-02-01T15:06:31.972Z,99259.66
2023-02-01T15:09:04.929Z,99257.06
2023-02-01T15:11:56.065Z,99255.34
2023-02-01T15:14:27.810Z,99263.96
2023-02-01T15:16:57.609Z,99265.68
2023-02-01T15:19:31.722Z,99264.83
2023-02-01T15:22:03.524Z,99264.81
2023-02-01T15:24:34.688Z,99263.13
2023-02-01T15:27:07.564Z,99264.83
2023-02-01T15:29:39.769Z,99268.27
2023-02-01T15:32:30.884Z,99262.25
2023-02-01T15:35:01.804Z,99253.67
2023-02-01T15:37:31.749Z,99267.41
2023-02-01T15:40:22.345Z,99263.11
2023-02-01T15:42:55.429Z,99261.42
2023-02-01T15:45:28.617Z,99264.86
2023-02-01T15:48:00.259Z,99271.73
2023-02-01T15:50:40.676Z,99275.17
2023-02-01T15:53:19.152Z,99270.04
2023-02-01T15:55:52.447Z,99277.77
2023-02-01T15:58:23.834Z,99273.47
2023-02-01T16:00:54.951Z,99272.62
2023-02-01T16:03:41.635Z,99271.76
2023-02-01T16:06:12.745Z,99268.34
2023-02-01T16:08:54.487Z,99264.03
2023-02-01T16:11:30.065Z,99264.88
2023-02-01T16:14:03.003Z,99266.61
2023-02-01T16:16:35.904Z,99260.60
2023-02-01T16:19:05.515Z,99253.73
2023-02-01T16:21:34.752Z,99259.75
2023-02-01T16:24:08.435Z,99256.30
2023-02-01T16:26:38.814Z,99253.72
2023-02-01T16:29:09.486Z,99250.30
2023-02-01T16:31:45.813Z,99258.02
2023-02-01T16:34:21.908Z,99260.61
2023-02-01T16:36:52.791Z,99267.46
2023-02-01T16:39:22.187Z,99262.33
2023-02-01T16:41:51.664Z,99267.48
2023-02-01T16:44:20.726Z,99277.79
2023-02-01T16:46:50.319Z,99276.06
2023-02-01T16:49:23.241Z,99271.78
2023-02-01T16:51:56.539Z,99271.78
2023-02-01T16:54:27.920Z,99281.21
2023-02-01T16:56:56.984Z,99268.31
2023-02-01T16:59:26.187Z,99265.73
2023-02-01T17:01:56.199Z,99271.77
2023-02-01T17:04:25.773Z,99271.78
2023-02-01T17:06:56.173Z,99269.18
2023-02-01T17:09:25.956Z,99281.22
2023-02-01T17:11:55.857Z,99282.94
2023-02-01T17:14:25.521Z,99277.78
2023-02-01T17:16:56.089Z,99276.91
2023-02-01T17:19:25.619Z,99276.06
2023-02-01T17:21:59.058Z,99275.21
2023-02-01T17:24:46.431Z,99271.76
2023-02-01T17:27:18.184Z,99269.18
2023-02-01T17:29:47.909Z,99272.64
2023-02-01T17:32:20.177Z,99275.20
2023-02-01T17:34:51.256Z,99276.91
2023-02-01T17:37:25.426Z,99263.17
2023-02-01T17:40:02.109Z,99280.36
2023-02-01T17:42:38.037Z,99283.79
2023-02-01T17:45:22.583Z,99271.75
2023-02-01T17:47:52.113Z,99273.48
2023-02-01T17:50:22.695Z,99281.21
2023-02-01T17:52:52.664Z,99276.91
2023-02-01T17:55:26.480Z,99282.94
2023-02-01T17:57:58.907Z,99282.08
2023-02-01T18:00:31.734Z,99276.92
2023-02-01T18:03:03.204Z,99273.47
2023-02-01T18:05:39.060Z,99279.48
2023-02-01T18:08:09.724Z,99288.08
2023-02-01T18:10:38.715Z,99290.66
2023-02-01T18:13:09.721Z,99280.36
2023-02-01T18:15:39.618Z,99291.52
2023-02-01T18:18:09.382Z,99280.34
2023-02-01T18:20:44.757Z,99284.66
2023-02-01T18:23:18.447Z,99277.76
2023-02-01T18:25:48.127Z,99276.92
2023-02-01T18:28:17.799Z,99284.64
2023-02-01T18:30:50.449Z,99280.35
2023-02-01T18:33:20.919Z,99284.64
2023-02-01T18:35:50.339Z,99282.06
2023-02-01T18:38:19.333Z,99282.92
2023-02-01T18:40:52.910Z,99276.91
2023-02-01T18:43:22.232Z,99278.63
2023-02-01T18:45:51.658Z,99288.08
2023-02-01T18:48:23.882Z,99271.75
2023-02-01T18:50:57.010Z,99276.90
2023-02-01T18:53:29.546Z,99284.63
2023-02-01T18:55:59.557Z,99268.33
2023-02-01T18:58:31.813Z,99270.90
2023-02-01T19:01:08.898Z,99270.90
2023-02-01T19:03:42.984Z,99265.75
2023-02-01T19:06:15.731Z,99255.42
2023-02-01T19:08:47.609Z,99270.02
2023-02-01T19:11:19.043Z,99259.72
2023-02-01T19:13:51.720Z,99262.30
2023-02-01T19:16:21.221Z,99272.62
2023-02-01T19:18:53.264Z,99265.73
2023-02-01T19:21:23.017Z,99264.88
2023-02-01T19:23:52.596Z,99257.13
2023-02-01T19:26:22.147Z,99270.02
2023-02-01T19:28:51.222Z,99265.70
2023-02-01T19:31:20.558Z,99265.71
2023-02-01T19:33:49.628Z,99264.86
2023-02-01T19:36:19.190Z,99259.69
2023-02-01T19:38:48.167Z,99257.11
2023-02-01T19:41:17.506Z,99254.54
2023-02-01T19:43:46.973Z,99249.40
2023-02-01T19:46:16.229Z,99251.09
2023-02-01T19:48:45.034Z,99255.41
2023-02-01T19:51:14.138Z,99260.54
2023-02-01T19:53:43.293Z,99257.95
2023-02-01T19:56:12.595Z,99251.94
2023-02-01T19:58:41.879Z,99251.06
2023-02-01T20:01:11.131Z,99246.78
2023-02-01T20:03:40.048Z,99244.20
2023-02-01T20:06:09.395Z,99248.50
2023-02-01T20:08:38.411Z,99247.63
2023-02-01T20:11:08.565Z,99262.23
2023-02-01T20:13:38.145Z,99250.20
2023-02-01T20:16:07.744Z,99251.08
2023-02-01T20:18:37.028Z,99252.77
2023-02-01T20:21:06.691Z,99249.33
2023-02-01T20:23:36.548Z,99245.06
2023-02-01T20:26:09.023Z,99239.05
2023-02-01T20:28:38.526Z,99246.75
2023-02-01T20:31:10.364Z,99249.32
2023-02-01T20:33:39.606Z,99247.63
2023-02-01T20:36:10.149Z,99233.91
2023-02-01T20:38:39.418Z,99238.19
2023-02-01T20:41:10.097Z,99233.91
2023-02-01T20:43:38.969Z,99241.63
2023-02-01T20:46:09.208Z,99240.77
2023-02-01T20:48:42.164Z,99236.47
2023-02-01T20:51:12.688Z,99235.61
2023-02-01T20:53:43.565Z,99230.48
2023-02-01T20:56:14.063Z,99223.63
2023-02-01T20:58:44.025Z,99233.05
2023-02-01T21:01:13.657Z,99228.78
2023-02-01T21:03:42.888Z,99233.91
2023-02-01T21:06:13.134Z,99231.31
2023-02-01T21:08:42.425Z,99233.02
2023-02-01T21:11:15.461Z,99237.32
2023-02-01T21:13:50.057Z,99227.88
2023-02-01T21:16:19.165Z,99238.20
2023-02-01T21:18:51.653Z,99234.77
2023-02-01T21:21:21.357Z,99230.47
2023-02-01T21:23:52.285Z,99229.61
2023-02-01T21:26:22.982Z,99227.03
2023-02-01T21:28:53.739Z,99242.48
2023-02-01T21:31:25.507Z,99238.20
2023-02-01T21:33:56.347Z,99233.91
2023-02-01T21:36:25.837Z,99229.60
2023-02-01T21:39:03.552Z,99234.78
2023-02-01T21:41:52.858Z,99234.76
2023-02-01T21:44:23.064Z,99241.63
2023-02-01T21:46:52.525Z,99241.59
2023-02-01T21:49:21.930Z,99242.45
2023-02-01T21:51:52.013Z,99229.59
2023-02-01T21:54:21.511Z,99233.04
2023-02-01T21:56:50.809Z,99235.61
2023-02-01T21:59:20.069Z,99229.60
2023-02-01T22:01:49.688Z,99228.75
2023-02-01T22:04:18.984Z,99225.33
2023-02-01T22:06:48.271Z,99225.31
2023-02-01T22:09:19.925Z,99219.31
2023-02-01T22:11:50.275Z,99221.88
2023-02-01T22:14:20.214Z,99224.48
2023-02-01T22:16:49.842Z,99223.63
2023-02-01T22:19:19.390Z,99227.03
2023-02-01T22:21:49.300Z,99226.19
2023-02-01T22:24:20.520Z,99225.33
2023-02-01T22:26:50.774Z,99227.90
2023-02-01T22:29:19.996Z,99229.62
2023-02-01T22:31:49.454Z,99226.19
2023-02-01T22:34:19.168Z,99223.64
2023-02-01T22:36:48.783Z,99220.21
2023-02-01T22:39:18.114Z,99220.20
2023-02-01T22:41:47.167Z,99220.21
2023-02-01T22:44:16.399Z,99213.34
2023-02-01T22:46:45.624Z,99208.17
2023-02-01T22:49:14.992Z,99214.18
2023-02-01T22:51:43.966Z,99220.19
2023-02-01T22:54:17.560Z,99214.16
2023-02-01T22:56:47.204Z,99208.16
2023-02-01T22:59:16.764Z,99210.72
2023-02-01T23:01:46.357Z,99213.28
2023-02-01T23:04:16.881Z,99208.98
2023-02-01T23:06:45.935Z,99205.52
2023-02-01T23:09:17.846Z,99213.25
2023-02-01T23:11:47.307Z,99213.23
2023-02-01T23:14:17.205Z,99210.67
2023-02-01T23:16:48.015Z,99208.08
2023-02-01T23:19:19.788Z,99210.63
2023-02-01T23:21:49.560Z,99210.61
2023-02-01T23:24:18.767Z,99211.46
2023-02-01T23:26:47.916Z,99205.48
2023-02-01T23:29:18.648Z,99219.19
2023-02-01T23:31:47.730Z,99214.02
2023-02-01T23:34:16.877Z,99211.45
2023-02-01T23:36:45.772Z,99211.45
2023-02-01T23:39:14.801Z,99220.89
2023-02-01T23:41:43.708Z,99214.87
2023-02-01T23:44:12.737Z,99215.75
2023-02-01T23:46:47.154Z,99223.47
2023-02-01T23:49:18.386Z,99216.59
2023-02-01T23:51:52.230Z,99221.74
2023-02-01T23:54:22.793Z,99208.87
2023-02-01T23:56:51.718Z,99213.18
2023-02-01T23:59:22.089Z,99208.03
